Time;durP1;ratioP1;P1;durP2;ratioP2;P2;SDS_P1;SDS_P2;PMS_P1;PMS_P2;Temp;Humidity;BMP_temperature;BMP_pressure;BME280_temperature;BME280_humidity;BME280_pressure;Samples;Min_cycle;Max_cycle;Signal;HPM_P1;HPM_P2
2021/06/17 00:00:16;;;;;;;15.97;14.77;;;21.70;1.00;;;;;;4939862;29;20329;-58
2021/06/17 00:02:42;;;;;;;15.63;14.43;;;21.60;1.00;;;;;;4934681;29;20182;-58
2021/06/17 00:05:10;;;;;;;16.47;15.27;;;21.60;1.00;;;;;;4934068;28;20437;-58
2021/06/17 00:07:36;;;;;;;16.47;15.07;;;21.60;1.00;;;;;;4934430;29;20516;-58
2021/06/17 00:10:04;;;;;;;16.47;15.07;;;21.60;1.00;;;;;;4936244;29;21043;-59
2021/06/17 00:12:30;;;;;;;16.33;15.03;;;21.50;1.00;;;;;;4951167;29;20599;-58
2021/06/17 00:14:55;;;;;;;16.10;14.80;;;21.50;1.00;;;;;;4945883;29;20438;-58
2021/06/17 00:17:21;;;;;;;15.50;14.30;;;21.50;99.90;;;;;;4952715;29;20268;-59
2021/06/17 00:19:47;;;;;;;15.80;14.60;;;21.50;99.90;;;;;;4943582;29;20190;-57
2021/06/17 00:22:12;;;;;;;16.03;14.83;;;21.40;99.90;;;;;;4934996;29;20204;-59
2021/06/17 00:24:38;;;;;;;16.00;14.80;;;21.40;99.90;;;;;;4952050;29;20449;-59
2021/06/17 00:27:07;;;;;;;15.23;14.10;;;21.50;99.90;;;;;;4944893;29;20200;-59
2021/06/17 00:29:33;;;;;;;15.43;14.33;;;21.50;25.20;;;;;;4935619;29;20193;-58
2021/06/17 00:31:58;;;;;;;14.80;13.50;;;21.40;96.70;;;;;;4934100;29;20804;-59
2021/06/17 00:34:24;;;;;;;15.90;14.70;;;21.40;99.90;;;;;;4935599;29;20982;-60
2021/06/17 00:36:49;;;;;;;16.50;15.10;;;21.30;99.90;;;;;;4945157;29;20310;-59
2021/06/17 00:39:15;;;;;;;15.70;14.50;;;21.30;1.00;;;;;;4934245;29;20189;-59
2021/06/17 00:41:42;;;;;;;15.97;14.80;;;21.20;1.00;;;;;;4934085;29;20550;-59
2021/06/17 00:44:08;;;;;;;15.97;14.57;;;21.20;1.00;;;;;;4934307;29;20197;-58
2021/06/17 00:46:35;;;;;;;15.47;14.30;;;21.10;1.00;;;;;;4952705;28;20448;-60
2021/06/17 00:49:01;;;;;;;16.00;14.50;;;21.10;1.00;;;;;;4954238;28;20181;-59
2021/06/17 00:51:26;;;;;;;16.37;14.97;;;21.00;22.50;;;;;;4923700;29;20832;-59
2021/06/17 00:53:52;;;;;;;17.10;15.67;;;21.00;1.00;;;;;;4917411;29;20232;-59
2021/06/17 00:56:17;;;;;;;16.03;14.80;;;21.00;1.00;;;;;;4934716;29;20201;-59
2021/06/17 00:58:44;;;;;;;16.00;14.73;;;21.10;1.00;;;;;;4941454;29;20195;-59
2021/06/17 01:01:09;;;;;;;15.30;14.20;;;21.00;99.90;;;;;;4933651;29;20193;-59
2021/06/17 01:03:35;;;;;;;15.57;14.37;;;21.10;99.90;;;;;;4933394;29;20741;-59
2021/06/17 01:06:01;;;;;;;15.07;13.53;;;21.10;99.90;;;;;;4935941;28;20670;-59
2021/06/17 01:08:55;;;;;;;15.17;14.07;;;21.00;82.20;;;;;;4941958;28;20628;-59
2021/06/17 01:11:27;;;;;;;16.07;14.90;;;21.10;99.90;;;;;;4933618;29;20593;-59
2021/06/17 01:14:01;;;;;;;14.40;13.40;;;21.20;45.10;;;;;;4935920;29;20974;-58
2021/06/17 01:16:38;;;;;;;15.30;14.20;;;21.20;1.00;;;;;;4950299;29;20902;-59
2021/06/17 01:19:29;;;;;;;14.33;13.13;;;21.20;1.00;;;;;;4945198;29;20488;-59
2021/06/17 01:22:07;;;;;;;13.90;12.90;;;21.30;99.90;;;;;;4938103;29;20417;-60
2021/06/17 01:24:51;;;;;;;14.83;13.70;;;21.30;20.70;;;;;;4934186;29;20797;-59
2021/06/17 01:27:39;;;;;;;14.53;13.53;;;21.40;1.00;;;;;;4933068;29;20516;-58
2021/06/17 01:30:10;;;;;;;14.90;13.80;;;21.40;1.00;;;;;;4934437;29;20472;-60
2021/06/17 01:32:39;;;;;;;14.07;12.87;;;21.40;99.90;;;;;;4935032;29;20480;-59
2021/06/17 01:35:06;;;;;;;15.33;13.97;;;21.40;54.00;;;;;;4940307;29;20476;-59
2021/06/17 01:37:34;;;;;;;13.97;12.97;;;21.40;1.00;;;;;;4938650;29;20919;-60
2021/06/17 01:40:01;;;;;;;15.23;13.93;;;21.50;1.00;;;;;;4935372;29;20425;-59
2021/06/17 01:42:28;;;;;;;15.40;14.30;;;21.50;1.00;;;;;;4943442;29;20484;-59
2021/06/17 01:44:56;;;;;;;14.00;13.00;;;21.50;99.90;;;;;;4940534;29;20568;-59
2021/06/17 01:47:23;;;;;;;14.60;13.40;;;21.50;99.90;;;;;;4937492;29;20472;-58
2021/06/17 01:49:50;;;;;;;14.93;13.70;;;21.60;99.90;;;;;;4943478;29;20488;-58
2021/06/17 01:52:16;;;;;;;14.10;13.10;;;21.60;99.90;;;;;;4933737;29;20509;-58
2021/06/17 01:54:44;;;;;;;14.30;13.30;;;21.60;60.90;;;;;;4932414;29;20434;-59
2021/06/17 01:57:10;;;;;;;14.43;13.40;;;21.60;1.00;;;;;;4941826;28;20432;-58
2021/06/17 01:59:36;;;;;;;14.50;13.40;;;21.60;1.00;;;;;;4938925;29;20437;-57
2021/06/17 02:02:02;;;;;;;13.97;12.97;;;21.60;1.00;;;;;;4941489;28;20438;-58
2021/06/17 02:04:29;;;;;;;14.60;13.57;;;21.60;1.00;;;;;;4937949;29;20473;-57
2021/06/17 02:06:56;;;;;;;14.03;13.03;;;21.60;1.00;;;;;;4934708;29;20434;-59
2021/06/17 02:09:24;;;;;;;14.73;13.63;;;21.60;1.00;;;;;;4932063;29;20954;-58
2021/06/17 02:11:51;;;;;;;13.73;12.83;;;21.60;1.00;;;;;;4932800;29;20460;-58
2021/06/17 02:14:18;;;;;;;14.97;13.77;;;21.60;1.00;;;;;;4933214;29;20556;-59
2021/06/17 02:16:44;;;;;;;14.43;13.23;;;21.60;1.00;;;;;;4932628;29;20469;-58
2021/06/17 02:19:16;;;;;;;15.20;14.10;;;21.50;1.00;;;;;;4935399;29;20491;-58
2021/06/17 02:21:44;;;;;;;14.57;13.47;;;21.50;1.00;;;;;;4948101;29;20426;-58
2021/06/17 02:24:11;;;;;;;15.50;14.30;;;21.40;1.00;;;;;;4938463;28;20633;-59
2021/06/17 02:26:41;;;;;;;14.63;13.63;;;21.40;1.00;;;;;;4932651;29;20578;-58
2021/06/17 02:29:10;;;;;;;16.03;14.73;;;21.30;1.00;;;;;;4938248;29;20444;-58
2021/06/17 02:31:42;;;;;;;14.43;13.43;;;21.30;1.00;;;;;;4947948;29;20506;-58
2021/06/17 02:34:08;;;;;;;15.63;14.20;;;21.30;1.00;;;;;;4944557;29;20477;-58
2021/06/17 02:36:36;;;;;;;15.03;13.93;;;21.20;1.00;;;;;;4932260;29;20409;-57
2021/06/17 02:39:06;;;;;;;14.67;13.60;;;21.20;1.00;;;;;;4932081;29;20780;-58
2021/06/17 02:41:32;;;;;;;15.73;14.27;;;21.10;1.00;;;;;;4951877;28;20445;-58
2021/06/17 02:43:59;;;;;;;14.70;13.47;;;21.20;1.00;;;;;;4949136;28;21032;-56
2021/06/17 02:46:24;;;;;;;14.23;13.13;;;21.10;1.00;;;;;;4935142;28;20536;-55
2021/06/17 02:48:52;;;;;;;15.13;14.00;;;21.10;1.00;;;;;;4931406;29;21022;-54
2021/06/17 02:51:17;;;;;;;14.40;13.20;;;21.10;1.00;;;;;;4933700;28;20208;-54
2021/06/17 02:53:43;;;;;;;14.83;13.73;;;21.10;1.00;;;;;;4932131;29;20469;-55
2021/06/17 02:56:19;;;;;;;14.87;13.77;;;21.10;1.00;;;;;;4930166;28;20692;-57
2021/06/17 02:59:02;;;;;;;14.80;13.70;;;21.00;1.00;;;;;;4933169;29;20207;-55
2021/06/17 03:01:52;;;;;;;14.77;13.67;;;21.00;9.00;;;;;;4943053;29;20589;-56
2021/06/17 03:04:36;;;;;;;15.03;13.93;;;21.00;9.20;;;;;;4938845;28;20444;-55
2021/06/17 03:07:05;;;;;;;15.00;13.70;;;21.00;38.00;;;;;;4943869;28;20580;-57
2021/06/17 03:09:46;;;;;;;15.33;13.97;;;20.90;84.90;;;;;;4932128;29;20483;-55
2021/06/17 03:12:17;;;;;;;14.97;13.87;;;20.90;99.90;;;;;;4933872;29;20479;-54
2021/06/17 03:14:45;;;;;;;14.37;13.33;;;20.90;99.90;;;;;;4940667;28;20439;-57
2021/06/17 03:17:12;;;;;;;15.17;14.00;;;20.80;99.90;;;;;;4935310;29;20432;-56
2021/06/17 03:19:39;;;;;;;15.27;14.00;;;20.80;99.90;;;;;;4943464;29;20839;-57
2021/06/17 03:22:08;;;;;;;14.73;13.63;;;20.90;99.90;;;;;;4938132;29;20492;-58
2021/06/17 03:24:37;;;;;;;15.57;14.17;;;20.90;99.90;;;;;;4940213;29;20429;-55
2021/06/17 03:27:06;;;;;;;15.30;14.10;;;20.90;99.90;;;;;;4936848;29;20432;-56
2021/06/17 03:29:36;;;;;;;15.63;14.43;;;20.80;99.90;;;;;;4947315;29;20435;-57
2021/06/17 03:32:03;;;;;;;14.47;13.40;;;20.90;99.90;;;;;;4936145;29;20892;-56
2021/06/17 03:34:30;;;;;;;14.90;13.53;;;20.90;37.30;;;;;;4934295;29;20931;-57
2021/06/17 03:36:58;;;;;;;14.20;12.80;;;20.90;8.70;;;;;;4934535;29;20515;-57
2021/06/17 03:39:25;;;;;;;14.00;13.00;;;20.90;1.00;;;;;;4948142;29;20476;-57
2021/06/17 03:41:52;;;;;;;14.43;13.43;;;21.00;1.00;;;;;;4959139;28;20434;-58
2021/06/17 03:44:20;;;;;;;14.63;13.53;;;21.00;1.00;;;;;;4958034;28;20930;-55
2021/06/17 03:46:47;;;;;;;14.40;13.30;;;21.00;1.00;;;;;;4954025;28;20506;-56
2021/06/17 03:49:12;;;;;;;14.07;13.07;;;21.10;1.00;;;;;;4945239;28;20455;-56
2021/06/17 03:51:40;;;;;;;15.20;14.03;;;21.10;1.00;;;;;;4942930;29;20437;-57
2021/06/17 03:54:23;;;;;;;15.00;13.87;;;21.10;1.00;;;;;;4934394;29;20213;-57
2021/06/17 03:56:49;;;;;;;14.03;12.93;;;21.20;1.00;;;;;;4934845;29;20979;-55
2021/06/17 03:59:16;;;;;;;14.20;13.17;;;21.30;99.90;;;;;;4933384;29;20904;-54
2021/06/17 04:01:42;;;;;;;13.63;12.60;;;21.30;99.90;;;;;;4934886;29;20472;-55
2021/06/17 04:04:07;;;;;;;14.70;13.37;;;21.30;99.90;;;;;;4934572;29;20464;-57
2021/06/17 04:06:33;;;;;;;14.43;13.40;;;21.30;99.90;;;;;;4935173;29;20536;-56
2021/06/17 04:08:59;;;;;;;13.70;12.60;;;21.40;99.90;;;;;;4947017;28;20200;-57
2021/06/17 04:11:25;;;;;;;14.30;13.20;;;21.40;99.90;;;;;;4934244;28;20284;-55
2021/06/17 04:13:53;;;;;;;14.37;13.07;;;21.50;99.90;;;;;;4949341;28;20225;-55
2021/06/17 04:16:22;;;;;;;13.40;12.40;;;21.50;99.90;;;;;;4943301;29;21133;-58
2021/06/17 04:18:49;;;;;;;13.27;12.30;;;21.50;99.90;;;;;;4936488;29;20492;-58
2021/06/17 04:21:15;;;;;;;13.50;12.50;;;21.60;99.90;;;;;;4926269;29;20430;-58
2021/06/17 04:23:46;;;;;;;13.43;12.43;;;21.60;52.50;;;;;;4937519;29;20889;-58
2021/06/17 04:26:16;;;;;;;14.50;13.40;;;21.60;14.60;;;;;;4942367;29;20461;-58
2021/06/17 04:28:41;;;;;;;15.03;13.87;;;21.60;1.00;;;;;;4943653;28;20791;-57
2021/06/17 04:31:08;;;;;;;12.83;12.00;;;21.60;1.00;;;;;;4936098;29;20445;-59
2021/06/17 04:33:34;;;;;;;13.40;12.40;;;21.70;1.00;;;;;;4932219;29;20205;-59
2021/06/17 04:36:02;;;;;;;14.40;13.40;;;21.80;1.00;;;;;;4949668;29;20872;-59
2021/06/17 04:38:28;;;;;;;14.57;13.57;;;21.80;1.00;;;;;;4948052;29;20190;-59
2021/06/17 04:40:54;;;;;;;14.47;13.37;;;21.80;1.00;;;;;;4933657;29;20433;-57
2021/06/17 04:43:23;;;;;;;13.87;12.87;;;21.80;1.00;;;;;;4946606;28;20472;-59
2021/06/17 04:45:54;;;;;;;13.67;12.63;;;21.80;1.00;;;;;;4940049;29;20451;-59
2021/06/17 04:48:23;;;;;;;14.30;13.30;;;21.80;1.00;;;;;;4933864;29;20430;-59
2021/06/17 04:50:49;;;;;;;14.23;13.13;;;21.80;1.00;;;;;;4934651;29;20541;-59
2021/06/17 04:53:19;;;;;;;14.33;13.27;;;21.90;1.00;;;;;;4933561;29;20457;-59
2021/06/17 04:55:52;;;;;;;14.00;13.00;;;21.90;1.00;;;;;;4918207;29;20300;-59
2021/06/17 04:58:20;;;;;;;14.40;13.33;;;21.90;1.00;;;;;;4951852;29;20472;-57
2021/06/17 05:00:46;;;;;;;14.77;13.67;;;22.00;1.00;;;;;;4937218;28;20512;-59
2021/06/17 05:03:13;;;;;;;14.63;13.43;;;22.00;1.00;;;;;;4938789;29;20436;-59
2021/06/17 05:05:38;;;;;;;14.47;13.43;;;21.90;1.00;;;;;;4935235;29;20948;-59
2021/06/17 05:13:33;;;;;;;13.80;12.87;;;22.10;1.00;;;;;;4936367;29;20477;-59
2021/06/17 05:16:01;;;;;;;14.90;13.67;;;22.10;1.00;;;;;;4933166;29;20417;-57
2021/06/17 05:18:28;;;;;;;14.07;13.07;;;22.20;1.00;;;;;;4934329;29;20830;-58
2021/06/17 05:20:56;;;;;;;14.03;12.97;;;22.20;1.00;;;;;;4933506;29;20450;-57
2021/06/17 05:23:23;;;;;;;14.00;13.00;;;22.20;1.00;;;;;;4916427;29;20445;-58
2021/06/17 05:25:55;;;;;;;14.07;12.93;;;22.20;1.00;;;;;;4944562;28;20441;-58
2021/06/17 05:28:24;;;;;;;13.50;12.60;;;22.30;1.00;;;;;;4943492;28;20433;-57
2021/06/17 05:30:51;;;;;;;14.47;13.43;;;22.30;1.00;;;;;;4943666;28;20440;-58
2021/06/17 05:33:17;;;;;;;14.37;13.27;;;22.40;1.00;;;;;;4942761;29;21249;-59
2021/06/17 05:35:46;;;;;;;14.10;12.83;;;22.40;1.00;;;;;;4933492;29;20939;-58
2021/06/17 05:38:11;;;;;;;13.60;12.60;;;22.50;1.00;;;;;;4941733;29;20520;-58
2021/06/17 05:40:37;;;;;;;15.03;13.90;;;22.60;1.00;;;;;;4937802;29;20429;-58
2021/06/17 05:43:03;;;;;;;15.30;14.20;;;22.60;99.90;;;;;;4933654;29;20205;-60
2021/06/17 05:45:28;;;;;;;14.20;13.20;;;22.70;99.90;;;;;;4931214;29;20186;-59
2021/06/17 05:47:54;;;;;;;14.40;13.47;;;22.80;99.90;;;;;;4936826;29;20447;-58
2021/06/17 05:50:19;;;;;;;14.37;13.27;;;22.80;99.90;;;;;;4933822;29;20194;-58
2021/06/17 05:52:45;;;;;;;14.10;13.00;;;22.90;99.90;;;;;;4932509;29;20566;-58
2021/06/17 05:55:11;;;;;;;14.93;13.93;;;23.00;99.90;;;;;;4932270;29;20182;-59
2021/06/17 05:57:37;;;;;;;14.30;13.27;;;23.00;99.90;;;;;;4944640;29;20265;-60
2021/06/17 06:00:10;;;;;;;14.17;13.17;;;23.10;99.90;;;;;;4938937;29;20524;-59
2021/06/17 06:02:36;;;;;;;13.60;12.70;;;23.10;99.90;;;;;;4947016;28;20792;-59
2021/06/17 06:05:03;;;;;;;13.20;12.30;;;23.20;99.90;;;;;;4946448;28;20455;-59
2021/06/17 06:07:28;;;;;;;13.97;13.07;;;23.20;99.90;;;;;;4951338;28;20440;-58
2021/06/17 06:09:54;;;;;;;13.60;12.70;;;23.30;99.90;;;;;;4932326;28;20926;-59
2021/06/17 06:12:20;;;;;;;14.00;12.67;;;23.30;99.90;;;;;;4929691;29;20214;-59
2021/06/17 06:14:45;;;;;;;14.07;13.03;;;23.40;99.90;;;;;;4931472;29;20194;-59
2021/06/17 06:17:11;;;;;;;13.80;12.80;;;23.50;99.90;;;;;;4931297;29;20565;-58
2021/06/17 06:19:37;;;;;;;14.43;13.30;;;23.50;83.30;;;;;;4931528;29;20645;-60
2021/06/17 06:22:06;;;;;;;13.57;12.57;;;23.60;84.10;;;;;;4932493;29;20206;-59
2021/06/17 06:24:34;;;;;;;14.47;13.27;;;23.70;93.80;;;;;;4940955;29;20212;-59
2021/06/17 06:27:00;;;;;;;14.00;13.00;;;23.80;69.40;;;;;;4932978;29;20844;-59
2021/06/17 06:29:26;;;;;;;13.90;12.90;;;23.90;46.60;;;;;;4942008;29;20468;-60
2021/06/17 06:31:55;;;;;;;15.37;14.13;;;24.00;33.80;;;;;;4949783;29;21146;-57
2021/06/17 06:34:21;;;;;;;14.33;13.30;;;24.10;20.50;;;;;;4950779;29;20483;-58
2021/06/17 06:36:46;;;;;;;13.87;12.60;;;24.10;1.00;;;;;;4950256;28;20883;-56
2021/06/17 06:39:12;;;;;;;14.67;13.57;;;24.20;1.00;;;;;;4946742;29;20213;-59
2021/06/17 06:41:39;;;;;;;14.30;13.30;;;24.20;1.00;;;;;;4950857;29;20583;-58
2021/06/17 06:44:05;;;;;;;14.40;13.10;;;24.30;1.00;;;;;;4950980;29;20181;-58
2021/06/17 06:46:30;;;;;;;14.50;13.50;;;24.30;1.00;;;;;;4951082;29;20421;-56
2021/06/17 06:48:56;;;;;;;14.07;13.07;;;24.40;1.00;;;;;;4943487;28;20190;-56
2021/06/17 06:51:21;;;;;;;14.90;13.60;;;24.50;1.00;;;;;;4938680;28;20193;-58
2021/06/17 06:53:47;;;;;;;14.10;13.10;;;24.50;1.00;;;;;;4937623;29;20272;-56
2021/06/17 06:56:12;;;;;;;14.97;13.93;;;24.60;1.00;;;;;;4935607;29;20273;-57
2021/06/17 06:58:38;;;;;;;14.50;13.40;;;24.70;1.00;;;;;;4949548;29;20232;-58
2021/06/17 07:01:04;;;;;;;14.63;13.70;;;24.80;1.00;;;;;;4938603;29;20205;-57
2021/06/17 07:03:29;;;;;;;15.77;14.50;;;24.90;1.00;;;;;;4949189;28;20606;-58
2021/06/17 07:05:57;;;;;;;14.57;13.57;;;24.90;1.00;;;;;;4951225;29;20196;-56
2021/06/17 07:08:23;;;;;;;15.40;14.20;;;25.10;1.00;;;;;;4958504;28;20193;-57
2021/06/17 07:10:49;;;;;;;14.40;13.27;;;25.10;1.00;;;;;;4948277;28;20440;-58
2021/06/17 07:13:15;;;;;;;14.63;13.73;;;25.20;1.00;;;;;;4936471;29;20217;-58
2021/06/17 07:15:44;;;;;;;14.93;13.80;;;25.40;1.00;;;;;;4935186;29;20182;-56
2021/06/17 07:18:10;;;;;;;15.47;14.37;;;25.40;1.00;;;;;;4946455;29;20472;-57
2021/06/17 07:20:36;;;;;;;14.10;13.10;;;25.50;1.00;;;;;;4935656;29;20440;-57
2021/06/17 07:23:02;;;;;;;15.50;14.30;;;25.60;1.00;;;;;;4943818;29;20185;-56
2021/06/17 07:25:28;;;;;;;13.67;12.67;;;25.70;1.00;;;;;;4935484;29;21027;-60
2021/06/17 07:27:55;;;;;;;14.60;13.40;;;25.90;1.00;;;;;;4935158;29;20980;-60
2021/06/17 07:30:23;;;;;;;15.37;14.07;;;26.10;1.00;;;;;;4934876;29;20433;-60
2021/06/17 07:32:49;;;;;;;14.13;13.13;;;26.20;1.00;;;;;;4940479;28;20469;-60
2021/06/17 07:35:15;;;;;;;15.37;14.30;;;26.40;1.00;;;;;;4935096;29;20429;-61
2021/06/17 07:37:41;;;;;;;14.60;13.30;;;26.50;1.00;;;;;;4934497;29;20208;-61
2021/06/17 07:40:09;;;;;;;15.10;14.00;;;26.70;1.00;;;;;;4933985;29;20433;-60
2021/06/17 07:42:35;;;;;;;14.10;13.10;;;26.80;1.00;;;;;;4935676;29;20193;-60
2021/06/17 07:45:00;;;;;;;14.43;13.43;;;26.90;1.00;;;;;;4933993;29;20417;-60
2021/06/17 07:47:26;;;;;;;13.40;12.50;;;27.10;1.00;;;;;;4936423;29;20181;-61
2021/06/17 07:49:52;;;;;;;14.77;13.47;;;27.20;1.00;;;;;;4953390;29;20255;-62
2021/06/17 07:52:18;;;;;;;14.30;13.20;;;27.30;1.00;;;;;;4947838;29;20213;-61
2021/06/17 07:54:43;;;;;;;14.53;13.53;;;27.50;1.00;;;;;;4934680;29;20660;-62
2021/06/17 07:57:09;;;;;;;15.00;13.70;;;27.60;99.90;;;;;;4932231;28;20433;-62
2021/06/17 07:59:35;;;;;;;13.90;12.90;;;27.70;99.90;;;;;;4934677;29;20190;-61
2021/06/17 08:02:00;;;;;;;13.80;12.83;;;27.80;99.90;;;;;;4933276;28;20599;-61
2021/06/17 08:04:27;;;;;;;13.93;12.97;;;27.90;99.90;;;;;;4953359;29;20499;-61
2021/06/17 08:06:53;;;;;;;13.57;12.57;;;28.00;99.90;;;;;;4947304;28;20192;-61
2021/06/17 08:09:19;;;;;;;12.60;11.73;;;28.20;99.90;;;;;;4958307;28;20430;-59
2021/06/17 08:11:46;;;;;;;12.87;11.97;;;28.30;99.90;;;;;;4949667;28;20854;-59
2021/06/17 08:14:12;;;;;;;13.07;12.07;;;28.40;99.90;;;;;;4935207;29;20359;-59
2021/06/17 08:16:38;;;;;;;12.93;11.93;;;28.40;99.90;;;;;;4935402;29;20998;-60
2021/06/17 08:19:04;;;;;;;11.87;10.97;;;28.60;99.90;;;;;;4937477;29;20226;-60
2021/06/17 08:21:31;;;;;;;12.33;11.53;;;28.70;99.90;;;;;;4943627;28;20656;-60
2021/06/17 08:23:56;;;;;;;12.93;12.20;;;28.70;99.90;;;;;;4932039;28;20256;-60
2021/06/17 08:26:23;;;;;;;12.20;11.43;;;28.90;99.90;;;;;;4935071;29;21178;-61
2021/06/17 08:28:48;;;;;;;11.90;11.00;;;29.00;99.90;;;;;;4937872;29;20280;-60
2021/06/17 08:31:14;;;;;;;12.53;11.73;;;29.20;99.90;;;;;;4932212;29;20452;-59
2021/06/17 08:33:40;;;;;;;12.00;11.20;;;29.30;99.90;;;;;;4934263;29;20268;-59
2021/06/17 08:36:10;;;;;;;13.40;12.50;;;29.40;99.90;;;;;;4943743;28;20224;-60
2021/06/17 08:38:39;;;;;;;12.30;11.40;;;29.50;99.90;;;;;;4931244;29;21203;-60
2021/06/17 08:41:04;;;;;;;12.40;11.70;;;29.60;99.90;;;;;;4934494;29;20417;-60
2021/06/17 08:43:33;;;;;;;12.17;11.27;;;29.70;99.90;;;;;;4930684;29;20441;-60
2021/06/17 08:45:59;;;;;;;12.97;12.03;;;29.80;99.90;;;;;;4925553;29;20197;-61
2021/06/17 08:48:24;;;;;;;13.40;12.37;;;29.80;99.90;;;;;;4942531;29;20500;-61
2021/06/17 08:50:53;;;;;;;11.80;11.00;;;29.90;99.90;;;;;;4924874;29;20206;-61
2021/06/17 08:53:19;;;;;;;11.30;10.50;;;29.90;99.90;;;;;;4911354;29;20236;-60
2021/06/17 08:55:45;;;;;;;11.30;10.60;;;29.90;99.90;;;;;;4939319;29;20457;-60
2021/06/17 08:58:10;;;;;;;10.30;9.50;;;29.90;99.90;;;;;;4931373;28;20181;-61
2021/06/17 09:00:46;;;;;;;10.40;9.77;;;30.10;99.90;;;;;;4939094;29;20198;-60
2021/06/17 09:03:16;;;;;;;10.20;9.50;;;30.00;99.90;;;;;;4934476;29;20532;-60
2021/06/17 09:05:45;;;;;;;10.00;9.40;;;30.10;99.90;;;;;;4936653;29;20441;-60
2021/06/17 09:08:15;;;;;;;9.83;9.23;;;30.20;99.90;;;;;;4943501;29;20432;-61
2021/06/17 09:10:42;;;;;;;9.53;9.03;;;30.20;99.90;;;;;;4933470;29;20444;-61
2021/06/17 09:13:09;;;;;;;9.50;8.90;;;30.30;99.90;;;;;;4932623;29;21019;-61
2021/06/17 09:15:55;;;;;;;9.40;8.80;;;30.40;99.90;;;;;;4931799;29;20429;-61
2021/06/17 09:18:29;;;;;;;10.40;9.80;;;30.60;99.90;;;;;;4931734;29;20564;-61
2021/06/17 09:21:00;;;;;;;9.40;8.53;;;30.60;99.90;;;;;;4932677;29;20426;-61
2021/06/17 09:23:41;;;;;;;9.40;8.90;;;30.60;99.90;;;;;;4927059;29;20440;-60
2021/06/17 09:26:12;;;;;;;9.90;9.30;;;30.70;99.90;;;;;;4935883;29;20445;-61
2021/06/17 09:28:48;;;;;;;9.83;9.23;;;30.60;99.90;;;;;;4931723;29;20920;-61
2021/06/17 09:31:15;;;;;;;9.70;9.00;;;30.80;99.90;;;;;;4936017;29;20424;-61
2021/06/17 09:33:45;;;;;;;10.23;9.33;;;30.70;99.90;;;;;;4937988;29;20998;-60
2021/06/17 09:36:11;;;;;;;9.77;9.17;;;30.70;99.90;;;;;;4918947;29;20477;-61
2021/06/17 09:38:45;;;;;;;9.47;8.97;;;30.90;99.90;;;;;;4932082;29;20421;-61
2021/06/17 09:41:11;;;;;;;9.53;9.00;;;31.00;99.90;;;;;;4939753;28;20694;-61
2021/06/17 09:43:45;;;;;;;10.33;9.73;;;31.10;99.90;;;;;;4928992;29;20500;-61
2021/06/17 09:46:11;;;;;;;9.60;9.10;;;31.20;99.90;;;;;;4941781;29;20507;-61
2021/06/17 09:48:45;;;;;;;9.90;9.30;;;31.30;99.90;;;;;;4938866;29;20918;-61
2021/06/17 09:51:44;;;;;;;9.50;8.90;;;31.40;99.90;;;;;;4933239;29;20489;-60
2021/06/17 09:54:25;;;;;;;8.67;8.07;;;31.30;99.90;;;;;;4930598;29;20564;-61
2021/06/17 09:56:58;;;;;;;9.07;8.57;;;31.40;99.90;;;;;;4923855;29;20445;-61
2021/06/17 09:59:42;;;;;;;9.43;8.80;;;31.50;99.90;;;;;;4923766;29;20545;-61
2021/06/17 10:02:17;;;;;;;9.47;8.90;;;31.60;99.90;;;;;;4926949;29;21272;-61
2021/06/17 10:04:43;;;;;;;9.60;9.10;;;31.50;99.90;;;;;;4942003;29;20424;-61
2021/06/17 10:07:12;;;;;;;10.30;9.60;;;31.60;99.90;;;;;;4928506;29;21311;-61
2021/06/17 10:09:38;;;;;;;9.77;9.07;;;31.70;99.90;;;;;;4940146;29;20423;-60
2021/06/17 10:12:05;;;;;;;9.70;9.10;;;31.90;99.90;;;;;;4942106;28;20500;-61
2021/06/17 10:14:31;;;;;;;9.97;9.37;;;32.00;99.90;;;;;;4946574;28;20199;-60
2021/06/17 10:16:59;;;;;;;9.77;9.17;;;32.00;99.90;;;;;;4942190;28;20520;-61
2021/06/17 10:19:26;;;;;;;9.57;8.97;;;32.00;99.90;;;;;;4918553;29;20818;-61
2021/06/17 10:21:52;;;;;;;8.83;8.33;;;32.20;99.90;;;;;;4930225;29;20512;-61
2021/06/17 10:24:23;;;;;;;9.23;8.63;;;32.40;99.90;;;;;;4932157;29;20440;-61
2021/06/17 10:26:56;;;;;;;8.20;7.80;;;32.70;99.90;;;;;;4935081;29;20460;-60
2021/06/17 10:29:34;;;;;;;9.60;9.00;;;32.70;99.90;;;;;;4935004;29;20427;-61
2021/06/17 10:31:59;;;;;;;9.43;8.83;;;32.70;99.90;;;;;;4933667;29;20789;-61
2021/06/17 10:34:31;;;;;;;9.13;8.53;;;32.80;99.90;;;;;;4943276;29;20472;-60
2021/06/17 10:37:17;;;;;;;9.93;9.33;;;33.00;99.90;;;;;;4952145;29;20337;-61
2021/06/17 10:39:50;;;;;;;8.97;8.47;;;33.30;99.90;;;;;;4951963;29;20425;-61
2021/06/17 10:42:24;;;;;;;8.87;8.37;;;33.40;99.90;;;;;;4935402;29;20436;-60
2021/06/17 10:45:08;;;;;;;8.83;8.30;;;33.40;99.90;;;;;;4922606;29;20420;-60
2021/06/17 10:50:13;;;;;;;9.03;8.43;;;33.50;99.90;;;;;;4952106;29;20451;-60
2021/06/17 10:52:41;;;;;;;8.20;7.80;;;33.60;99.90;;;;;;4939580;28;20476;-61
2021/06/17 10:55:13;;;;;;;9.27;8.77;;;33.40;99.90;;;;;;4942827;28;20443;-60
2021/06/17 10:57:51;;;;;;;10.23;9.43;;;33.60;99.90;;;;;;4948352;28;20528;-61
2021/06/17 11:00:26;;;;;;;9.43;8.73;;;33.60;99.90;;;;;;4935262;28;20888;-60
2021/06/17 11:03:17;;;;;;;9.17;8.57;;;33.70;99.90;;;;;;4935576;28;20456;-61
2021/06/17 11:05:47;;;;;;;9.73;8.93;;;33.80;99.90;;;;;;4941000;28;20444;-61
2021/06/17 11:08:21;;;;;;;9.60;9.00;;;33.60;99.90;;;;;;4956652;28;20444;-60
2021/06/17 11:10:48;;;;;;;9.83;9.30;;;33.40;99.90;;;;;;4958594;28;20412;-61
2021/06/17 11:13:39;;;;;;;9.07;8.50;;;33.40;99.90;;;;;;4949046;28;20466;-62
2021/06/17 11:16:14;;;;;;;9.60;9.00;;;33.40;99.90;;;;;;4933550;28;20582;-61
2021/06/17 11:21:31;;;;;;;10.57;9.87;;;33.90;99.90;;;;;;4948992;28;20443;-60
2021/06/17 11:24:00;;;;;;;9.43;8.93;;;34.10;99.90;;;;;;4938117;28;21272;-61
2021/06/17 11:26:47;;;;;;;9.50;9.00;;;34.40;99.90;;;;;;4945850;29;20444;-61
2021/06/17 11:29:19;;;;;;;9.30;8.70;;;34.60;99.90;;;;;;4929844;29;20496;-61
2021/06/17 11:31:49;;;;;;;10.60;9.90;;;34.60;99.90;;;;;;4929559;29;20793;-61
2021/06/17 11:34:36;;;;;;;10.40;9.80;;;34.80;99.90;;;;;;4931986;28;20576;-61
2021/06/17 11:37:12;;;;;;;14.47;13.23;;;34.90;99.90;;;;;;4934707;29;20485;-60
2021/06/17 11:39:38;;;;;;;14.73;13.53;;;35.10;99.90;;;;;;4945345;29;20436;-60
2021/06/17 11:42:05;;;;;;;9.87;9.10;;;34.90;99.90;;;;;;4953235;28;20485;-61
2021/06/17 11:44:32;;;;;;;9.50;9.00;;;34.70;99.90;;;;;;4937398;29;20222;-60
2021/06/17 11:47:07;;;;;;;9.43;8.90;;;34.80;99.90;;;;;;4936750;29;20542;-60
2021/06/17 11:49:35;;;;;;;9.87;9.37;;;35.00;99.90;;;;;;4916590;29;20430;-60
2021/06/17 11:52:06;;;;;;;9.90;9.30;;;35.30;99.90;;;;;;4934005;29;20442;-60
2021/06/17 11:54:31;;;;;;;9.83;9.33;;;34.90;99.90;;;;;;4937314;29;20471;-60
2021/06/17 11:57:00;;;;;;;9.57;9.07;;;34.90;99.90;;;;;;4942131;28;20472;-60
2021/06/17 11:59:30;;;;;;;9.03;8.53;;;35.10;99.90;;;;;;4963030;28;20184;-60
2021/06/17 12:02:18;;;;;;;9.48;8.98;;;35.20;99.90;;;;;;4942296;28;20450;-60
2021/06/17 12:04:45;;;;;;;10.00;9.40;;;34.90;99.90;;;;;;4940462;28;20176;-60
2021/06/17 12:07:12;;;;;;;10.33;9.73;;;34.70;99.90;;;;;;4939327;28;20959;-60
2021/06/17 12:09:38;;;;;;;9.50;9.00;;;34.70;99.90;;;;;;4933625;29;20731;-60
2021/06/17 12:12:30;;;;;;;9.57;9.00;;;34.80;99.90;;;;;;4934091;29;20453;-60
2021/06/17 12:14:57;;;;;;;9.40;8.77;;;35.00;99.90;;;;;;4944686;28;20554;-61
2021/06/17 12:17:53;;;;;;;9.57;8.90;;;35.10;99.90;;;;;;4936505;28;20444;-61
2021/06/17 12:20:24;;;;;;;8.80;8.30;;;35.30;99.90;;;;;;4938274;28;20468;-60
2021/06/17 12:22:59;;;;;;;8.40;7.90;;;35.20;99.90;;;;;;4935134;29;20473;-60
2021/06/17 12:25:26;;;;;;;8.77;8.20;;;35.50;99.90;;;;;;4947588;29;20499;-60
2021/06/17 12:27:53;;;;;;;7.77;7.27;;;35.80;99.90;;;;;;4943089;28;21139;-61
2021/06/17 12:30:24;;;;;;;7.67;7.10;;;35.80;99.90;;;;;;4937254;29;20448;-61
2021/06/17 12:32:50;;;;;;;7.53;7.13;;;35.80;99.90;;;;;;4940613;29;20481;-60
2021/06/17 12:35:17;;;;;;;7.90;7.30;;;36.10;99.90;;;;;;4944736;28;20508;-60
2021/06/17 12:38:02;;;;;;;6.73;6.23;;;36.60;99.90;;;;;;4943011;29;20448;-60
2021/06/17 12:40:33;;;;;;;6.60;6.30;;;36.00;99.90;;;;;;4936585;29;20909;-61
2021/06/17 12:43:11;;;;;;;7.53;7.03;;;36.10;99.90;;;;;;4955604;28;20448;-61
2021/06/17 12:45:38;;;;;;;8.00;7.20;;;36.30;99.90;;;;;;4944260;28;20555;-60
2021/06/17 12:49:09;;;;;;;7.80;7.20;;;36.20;99.90;;;;;;4934889;29;20442;-58
2021/06/17 12:54:27;;;;;;;7.95;7.45;;;36.20;99.90;;;;;;4933807;28;20524;-60
2021/06/17 12:57:10;;;;;;;7.57;7.28;;;36.80;99.90;;;;;;4933070;29;20178;-60
2021/06/17 13:00:12;;;;;;;7.60;7.10;;;37.50;99.90;;;;;;4941651;28;20702;-60